Ozone, Tennessee
Current Conditions -  °F | °C
As of 10:53 AM on Friday 19 Dec 2014 (Local Time) from KCSV Reporting Station
Clear Clear  
Wind Chill: 33°   Ceiling: Unl
Heat Index: 37°   Visibility: 10mi
Dew Point: 25°   Wind: 5mph
Humidity: 62%   Direction: NA
Pressure: 30.2"   Gusts: NA
Location:  35.88°N, 84.81°W
Report Text: KCSV 191653Z AUTO VRB04KT 10SM CLR 03/M04 A3020 RMK AO2 SLP238 T00281039
Loading
Personal Weather Stations






























Interactive Weather Map New forecast layout! Learn more

10-Day Weather Forecast

Advertisements
Track Severe Weather on mobile